Time;durP1;ratioP1;P1;durP2;ratioP2;P2;SDS_P1;SDS_P2;PMS_P1;PMS_P2;Temp;Humidity;BMP_temperature;BMP_pressure;BME280_temperature;BME280_humidity;BME280_pressure;Samples;Min_cycle;Max_cycle;Signal;HPM_P1;HPM_P2
2021/06/17 00:00:46;;;;;;;7.33;4.20;;;22.20;69.10;;;;;;4974253;28;20549;-45
2021/06/17 00:03:13;;;;;;;5.87;4.03;;;22.20;69.60;;;;;;4976402;28;20903;-44
2021/06/17 00:05:41;;;;;;;4.40;4.00;;;22.20;69.90;;;;;;4995492;28;20422;-48
2021/06/17 00:08:09;;;;;;;9.57;3.93;;;22.20;70.20;;;;;;4982019;28;20936;-48
2021/06/17 00:10:38;;;;;;;6.30;5.40;;;22.20;70.60;;;;;;4990702;28;20451;-51
2021/06/17 00:13:10;;;;;;;5.60;5.00;;;22.20;70.80;;;;;;4983259;28;20458;-49
2021/06/17 00:15:38;;;;;;;5.77;5.10;;;22.10;71.10;;;;;;4977050;28;21157;-44
2021/06/17 00:18:09;;;;;;;5.10;4.37;;;22.10;71.50;;;;;;4977268;28;20455;-47
2021/06/17 00:20:36;;;;;;;7.20;4.90;;;22.10;71.80;;;;;;4977361;28;20502;-44
2021/06/17 00:23:03;;;;;;;5.43;4.30;;;22.10;72.10;;;;;;4977543;28;20491;-46
2021/06/17 00:25:30;;;;;;;7.53;4.63;;;22.10;72.40;;;;;;4976534;28;20957;-49
2021/06/17 00:27:56;;;;;;;4.97;4.10;;;22.00;72.80;;;;;;4977175;28;20783;-50
2021/06/17 00:30:25;;;;;;;13.77;4.73;;;22.00;73.00;;;;;;4977299;28;20450;-47
2021/06/17 00:32:52;;;;;;;6.20;5.10;;;22.00;73.60;;;;;;4976336;28;20455;-45
2021/06/17 00:35:19;;;;;;;5.23;4.73;;;22.00;74.20;;;;;;4977198;28;20470;-51
2021/06/17 00:37:46;;;;;;;7.97;4.93;;;21.90;74.60;;;;;;4976829;28;20455;-47
2021/06/17 00:40:15;;;;;;;5.77;4.63;;;21.90;75.30;;;;;;4976915;28;20451;-49
2021/06/17 00:42:45;;;;;;;5.27;4.63;;;21.90;75.80;;;;;;4977109;28;20490;-48
2021/06/17 00:45:16;;;;;;;6.07;5.47;;;21.80;76.40;;;;;;4977325;28;20435;-47
2021/06/17 00:47:44;;;;;;;8.30;7.37;;;21.70;77.10;;;;;;4977232;28;20435;-52
2021/06/17 00:50:12;;;;;;;8.13;6.93;;;21.70;77.90;;;;;;4976938;28;20514;-49
2021/06/17 00:52:39;;;;;;;5.90;5.10;;;21.70;79.00;;;;;;4976809;28;20447;-50
2021/06/17 00:55:07;;;;;;;6.10;5.37;;;21.70;79.60;;;;;;4976902;28;20465;-47
2021/06/17 00:57:33;;;;;;;9.83;5.80;;;21.70;80.30;;;;;;4976978;28;20805;-48
2021/06/17 01:00:00;;;;;;;6.17;5.37;;;21.70;81.10;;;;;;4977309;28;20479;-49
2021/06/17 01:02:27;;;;;;;7.30;5.07;;;21.70;82.10;;;;;;4977413;28;20447;-45
2021/06/17 01:04:55;;;;;;;8.00;6.20;;;21.60;82.80;;;;;;4976622;28;20443;-51
2021/06/17 01:07:30;;;;;;;9.87;4.73;;;21.60;83.70;;;;;;4976857;28;20521;-50
2021/06/17 01:10:07;;;;;;;5.60;4.43;;;21.60;84.60;;;;;;4976779;28;20917;-49
2021/06/17 01:12:50;;;;;;;6.53;5.30;;;21.60;85.60;;;;;;4977342;28;20458;-49
2021/06/17 01:15:21;;;;;;;5.73;5.10;;;21.60;86.80;;;;;;4977150;28;20466;-51
2021/06/17 01:17:54;;;;;;;5.70;5.20;;;21.50;88.10;;;;;;4976693;28;20463;-50
2021/06/17 01:20:28;;;;;;;6.50;5.80;;;21.50;89.20;;;;;;4977289;28;20431;-50
2021/06/17 01:23:06;;;;;;;10.50;4.97;;;21.50;90.10;;;;;;4976957;28;20552;-50
2021/06/17 01:25:51;;;;;;;6.03;4.90;;;21.50;90.70;;;;;;4977162;28;20459;-50
2021/06/17 01:28:27;;;;;;;6.20;4.90;;;21.40;91.20;;;;;;4978036;28;20435;-44
2021/06/17 01:30:58;;;;;;;6.30;5.70;;;21.30;92.00;;;;;;4979782;28;20905;-45
2021/06/17 01:33:28;;;;;;;6.00;5.47;;;21.30;92.70;;;;;;4981601;28;20498;-46
2021/06/17 01:35:59;;;;;;;6.23;5.63;;;21.30;93.30;;;;;;4980874;28;20502;-47
2021/06/17 01:38:26;;;;;;;7.90;5.53;;;21.20;94.20;;;;;;4980495;28;20454;-44
2021/06/17 01:40:53;;;;;;;9.30;6.50;;;21.20;94.80;;;;;;4980995;28;20446;-45
2021/06/17 01:43:22;;;;;;;6.20;5.40;;;21.10;95.50;;;;;;4980560;28;20486;-44
2021/06/17 01:45:50;;;;;;;5.73;5.20;;;21.10;96.40;;;;;;4981312;28;20443;-47
2021/06/17 01:48:17;;;;;;;6.60;6.00;;;21.20;97.10;;;;;;4980142;28;20922;-50
2021/06/17 01:50:46;;;;;;;8.87;6.40;;;21.20;97.60;;;;;;4981178;28;20529;-45
2021/06/17 01:53:14;;;;;;;6.83;5.57;;;21.10;98.20;;;;;;4981773;28;20443;-50
2021/06/17 01:55:42;;;;;;;6.50;5.90;;;21.10;99.00;;;;;;4981378;28;20450;-47
2021/06/17 01:58:12;;;;;;;7.43;6.60;;;21.10;99.80;;;;;;4989795;23;20450;-46
2021/06/17 02:00:43;;;;;;;8.50;5.67;;;21.10;99.90;;;;;;5043569;23;20489;-44
2021/06/17 02:03:11;;;;;;;9.20;7.10;;;21.00;99.90;;;;;;5000760;28;21052;-44
2021/06/17 02:05:38;;;;;;;8.50;6.03;;;21.00;99.90;;;;;;5000466;28;20836;-44
2021/06/17 02:08:07;;;;;;;9.00;6.97;;;20.90;99.90;;;;;;5000453;28;20457;-44
2021/06/17 02:10:34;;;;;;;8.00;6.33;;;20.90;99.90;;;;;;5000245;28;20458;-45
2021/06/17 02:13:02;;;;;;;6.63;6.00;;;20.90;99.90;;;;;;5000339;28;20520;-44
2021/06/17 02:15:31;;;;;;;9.83;6.93;;;20.90;99.90;;;;;;5001102;28;20445;-46
2021/06/17 02:18:00;;;;;;;8.80;6.60;;;20.80;99.90;;;;;;5000904;28;20512;-47
2021/06/17 02:20:28;;;;;;;7.27;6.57;;;20.90;99.90;;;;;;5000234;28;20452;-44
2021/06/17 02:23:02;;;;;;;10.77;6.83;;;20.80;99.90;;;;;;5000322;28;20979;-48
2021/06/17 02:25:30;;;;;;;8.83;7.73;;;20.80;99.90;;;;;;5000436;28;20461;-43
2021/06/17 02:28:02;;;;;;;10.10;7.00;;;20.90;99.90;;;;;;4999988;28;20453;-46
2021/06/17 02:30:32;;;;;;;9.83;7.47;;;20.80;99.90;;;;;;5000331;28;20473;-47
2021/06/17 02:33:02;;;;;;;7.10;6.40;;;20.80;99.90;;;;;;5000123;28;20450;-44
2021/06/17 02:35:30;;;;;;;11.80;8.57;;;20.80;99.90;;;;;;4999502;28;20446;-44
2021/06/17 02:38:00;;;;;;;8.70;7.80;;;20.70;99.90;;;;;;4999403;28;20460;-45
2021/06/17 02:40:28;;;;;;;10.93;6.93;;;20.70;99.90;;;;;;4998835;28;20458;-48
2021/06/17 02:42:57;;;;;;;8.30;6.70;;;20.70;99.90;;;;;;4998220;28;20965;-45
2021/06/17 02:45:27;;;;;;;9.73;7.43;;;20.70;99.90;;;;;;4999449;28;20508;-46
2021/06/17 02:47:54;;;;;;;9.87;7.37;;;20.70;99.90;;;;;;4999736;28;20454;-45
2021/06/17 02:50:22;;;;;;;8.40;7.50;;;20.70;99.90;;;;;;4998470;28;20582;-49
2021/06/17 02:52:49;;;;;;;9.97;8.90;;;20.60;99.90;;;;;;4999037;28;20598;-49
2021/06/17 02:55:16;;;;;;;9.07;8.13;;;20.70;99.90;;;;;;4999606;28;20512;-44
2021/06/17 02:57:53;;;;;;;8.03;7.30;;;20.70;99.90;;;;;;5000233;28;20450;-45
2021/06/17 03:00:21;;;;;;;9.83;7.17;;;20.60;99.90;;;;;;4999742;28;20481;-46
2021/06/17 03:02:58;;;;;;;9.80;8.10;;;20.60;99.90;;;;;;4999940;28;20442;-45
2021/06/17 03:05:33;;;;;;;9.87;7.80;;;20.60;99.90;;;;;;4998977;28;20457;-45
2021/06/17 03:08:08;;;;;;;9.83;8.83;;;20.70;99.90;;;;;;4999234;28;20494;-44
2021/06/17 03:10:36;;;;;;;9.60;8.60;;;20.70;99.90;;;;;;4998897;28;20504;-45
2021/06/17 03:13:05;;;;;;;9.37;8.43;;;20.60;99.90;;;;;;4999665;28;20461;-48
2021/06/17 03:15:35;;;;;;;9.50;8.60;;;20.70;99.90;;;;;;4999161;28;20520;-46
2021/06/17 03:18:05;;;;;;;10.30;8.73;;;20.60;99.90;;;;;;4999542;28;20446;-45
2021/06/17 03:20:35;;;;;;;9.67;8.67;;;20.60;99.90;;;;;;4999287;28;20504;-51
2021/06/17 03:23:06;;;;;;;9.30;8.30;;;20.70;99.90;;;;;;4999209;28;20862;-45
2021/06/17 03:25:34;;;;;;;13.60;8.93;;;20.60;99.90;;;;;;4998760;28;20430;-45
2021/06/17 03:28:01;;;;;;;12.17;9.53;;;20.60;99.90;;;;;;4999565;28;20512;-46
2021/06/17 03:30:30;;;;;;;10.77;8.40;;;20.60;99.90;;;;;;4998954;28;20445;-45
2021/06/17 03:32:59;;;;;;;9.53;8.50;;;20.60;99.90;;;;;;4998707;28;20458;-46
2021/06/17 03:35:28;;;;;;;10.27;8.97;;;20.60;99.90;;;;;;4998678;28;20917;-45
2021/06/17 03:37:57;;;;;;;11.50;9.70;;;20.60;99.90;;;;;;4999258;28;20465;-43
2021/06/17 03:40:25;;;;;;;11.67;9.93;;;20.60;99.90;;;;;;4998307;28;20461;-47
2021/06/17 03:42:53;;;;;;;10.33;9.33;;;20.60;99.90;;;;;;4998607;28;20559;-46
2021/06/17 03:45:22;;;;;;;16.90;9.37;;;20.60;99.90;;;;;;4998028;28;20532;-47
2021/06/17 03:47:51;;;;;;;12.80;9.47;;;20.60;99.90;;;;;;4998696;28;20450;-47
2021/06/17 03:50:19;;;;;;;10.23;9.17;;;20.70;99.90;;;;;;4998497;28;20532;-49
2021/06/17 03:52:47;;;;;;;13.53;10.37;;;20.70;99.90;;;;;;4998061;28;20929;-46
2021/06/17 03:55:17;;;;;;;12.30;10.97;;;20.70;99.90;;;;;;4998439;28;20438;-49
2021/06/17 03:57:43;;;;;;;18.10;9.73;;;20.80;99.90;;;;;;4998196;28;20512;-45
2021/06/17 04:00:13;;;;;;;11.20;9.70;;;20.80;99.90;;;;;;4998315;28;21178;-43
2021/06/17 04:02:40;;;;;;;9.97;8.97;;;20.80;99.90;;;;;;4998795;28;20482;-45
2021/06/17 04:05:08;;;;;;;11.33;9.97;;;20.80;99.90;;;;;;4998490;28;20486;-43
2021/06/17 04:07:38;;;;;;;10.77;9.57;;;20.80;99.90;;;;;;4998385;28;20524;-47
2021/06/17 04:10:07;;;;;;;11.40;10.30;;;20.90;99.90;;;;;;4998493;28;20439;-43
2021/06/17 04:12:36;;;;;;;11.80;10.17;;;20.90;99.90;;;;;;4998366;28;20501;-42
2021/06/17 04:15:04;;;;;;;15.07;10.60;;;20.90;99.90;;;;;;4998687;28;20517;-45
2021/06/17 04:17:37;;;;;;;20.33;13.57;;;20.90;99.90;;;;;;4998673;28;20532;-45
2021/06/17 04:20:05;;;;;;;13.37;11.80;;;20.90;99.90;;;;;;4998558;28;20430;-49
2021/06/17 04:22:37;;;;;;;12.00;10.57;;;21.00;99.90;;;;;;4998075;28;20504;-49
2021/06/17 04:25:06;;;;;;;12.60;11.30;;;21.10;99.90;;;;;;4998491;28;20948;-46
2021/06/17 04:27:37;;;;;;;13.13;11.70;;;21.10;99.90;;;;;;4998319;28;20512;-48
2021/06/17 04:30:06;;;;;;;16.70;11.70;;;21.20;99.90;;;;;;4998377;28;20453;-47
2021/06/17 04:32:34;;;;;;;11.87;10.67;;;21.20;99.90;;;;;;4998769;28;20470;-44
2021/06/17 04:35:01;;;;;;;12.77;11.47;;;21.20;99.90;;;;;;4998764;28;20446;-42
2021/06/17 04:37:28;;;;;;;18.93;12.50;;;21.30;99.90;;;;;;4998902;28;20464;-43
2021/06/17 04:39:56;;;;;;;16.23;13.23;;;21.40;99.90;;;;;;4998548;28;20454;-43
2021/06/17 04:42:23;;;;;;;15.50;12.03;;;21.40;99.90;;;;;;4998622;28;20979;-51
2021/06/17 04:44:53;;;;;;;12.80;11.60;;;21.40;99.90;;;;;;4997734;28;20474;-46
2021/06/17 04:47:20;;;;;;;14.60;13.00;;;21.50;99.90;;;;;;4997390;28;20461;-44
2021/06/17 04:49:48;;;;;;;15.10;13.63;;;21.60;99.90;;;;;;4997740;28;20495;-45
2021/06/17 04:52:19;;;;;;;14.93;12.00;;;21.60;99.90;;;;;;4997604;28;20450;-50
2021/06/17 04:54:46;;;;;;;19.50;13.00;;;21.60;99.90;;;;;;4997094;28;20462;-48
2021/06/17 04:57:13;;;;;;;12.87;11.00;;;21.70;99.90;;;;;;4997411;28;20466;-48
2021/06/17 04:59:40;;;;;;;14.63;11.30;;;21.70;99.90;;;;;;4997369;28;20761;-49
2021/06/17 05:02:08;;;;;;;15.50;13.93;;;21.80;99.90;;;;;;4996614;28;20504;-51
2021/06/17 05:04:36;;;;;;;13.13;11.73;;;21.90;99.90;;;;;;4996921;28;20507;-48
2021/06/17 05:07:22;;;;;;;13.97;12.60;;;22.00;99.90;;;;;;5001077;28;20455;-49
2021/06/17 05:12:33;;;;;;;14.13;12.80;;;22.20;99.90;;;;;;5000753;28;20477;-49
2021/06/17 05:15:00;;;;;;;14.00;12.60;;;22.20;99.90;;;;;;5000770;28;20457;-47
2021/06/17 05:17:28;;;;;;;16.70;12.33;;;22.30;99.90;;;;;;5000825;28;20446;-50
2021/06/17 05:19:54;;;;;;;15.73;14.03;;;22.30;99.90;;;;;;5000870;28;20445;-47
2021/06/17 05:22:21;;;;;;;14.10;12.60;;;22.40;99.90;;;;;;5000360;28;20458;-45
2021/06/17 05:24:48;;;;;;;15.27;13.00;;;22.40;99.90;;;;;;5001185;28;20880;-48
2021/06/17 05:27:14;;;;;;;13.77;11.67;;;22.50;99.90;;;;;;5001189;28;20445;-47
2021/06/17 05:29:41;;;;;;;12.50;11.20;;;22.60;99.90;;;;;;5000806;28;20458;-51
2021/06/17 05:32:08;;;;;;;15.70;12.77;;;22.60;99.90;;;;;;5000743;28;20450;-47
2021/06/17 05:34:36;;;;;;;19.63;14.60;;;22.70;99.90;;;;;;5000807;28;20901;-51
2021/06/17 05:37:03;;;;;;;14.57;12.97;;;22.70;99.90;;;;;;5000536;28;20461;-45
2021/06/17 05:39:30;;;;;;;14.27;12.50;;;22.80;99.90;;;;;;5001309;28;20517;-47
2021/06/17 05:41:56;;;;;;;18.07;13.00;;;22.90;99.90;;;;;;4993869;28;20442;-46
2021/06/17 05:44:23;;;;;;;16.17;14.47;;;22.90;99.90;;;;;;4986854;28;20548;-44
2021/06/17 05:46:50;;;;;;;15.80;14.13;;;23.00;99.90;;;;;;4988830;28;20446;-47
2021/06/17 05:49:16;;;;;;;13.13;11.90;;;23.00;99.90;;;;;;4990896;28;20917;-48
2021/06/17 05:51:45;;;;;;;20.43;14.47;;;23.10;99.90;;;;;;4995495;28;20484;-48
2021/06/17 05:54:12;;;;;;;14.50;13.10;;;23.10;99.90;;;;;;4986874;28;20457;-49
2021/06/17 05:56:39;;;;;;;16.67;12.67;;;23.20;99.90;;;;;;4989588;28;20441;-49
2021/06/17 05:59:05;;;;;;;14.53;12.90;;;23.40;99.90;;;;;;4988012;28;20499;-52
2021/06/17 06:01:34;;;;;;;15.37;14.07;;;23.50;99.90;;;;;;4987247;28;20501;-49
2021/06/17 06:04:01;;;;;;;14.40;12.90;;;23.50;99.90;;;;;;4982410;28;20458;-50
2021/06/17 06:06:27;;;;;;;16.63;13.10;;;23.60;99.90;;;;;;4990698;28;20484;-47
2021/06/17 06:08:55;;;;;;;15.30;13.10;;;23.70;99.90;;;;;;4985615;28;20443;-46
2021/06/17 06:11:22;;;;;;;15.80;13.90;;;23.70;99.90;;;;;;4989148;28;20844;-51
2021/06/17 06:13:49;;;;;;;15.50;13.93;;;23.80;99.90;;;;;;4992428;28;20529;-47
2021/06/17 06:16:16;;;;;;;16.17;12.43;;;23.90;99.90;;;;;;4983957;28;20773;-50
2021/06/17 06:18:42;;;;;;;15.10;13.50;;;24.00;99.90;;;;;;4995318;28;20806;-49
2021/06/17 06:21:09;;;;;;;14.37;12.57;;;24.00;99.90;;;;;;4982128;28;20503;-49
2021/06/17 06:23:35;;;;;;;16.07;13.00;;;24.10;99.90;;;;;;4979875;28;20455;-48
2021/06/17 06:26:03;;;;;;;13.50;12.27;;;24.20;99.90;;;;;;4989755;28;21024;-45
2021/06/17 06:28:31;;;;;;;13.30;12.00;;;24.30;99.90;;;;;;4987983;28;20447;-47
2021/06/17 06:30:58;;;;;;;16.47;13.80;;;24.40;99.90;;;;;;4987417;28;20446;-49
2021/06/17 06:33:25;;;;;;;15.00;12.83;;;24.50;99.90;;;;;;4986557;28;20438;-44
2021/06/17 06:35:52;;;;;;;15.10;13.57;;;24.60;99.90;;;;;;4987402;28;20463;-48
2021/06/17 06:38:19;;;;;;;14.40;13.00;;;24.70;99.90;;;;;;4989193;28;20449;-45
2021/06/17 06:40:46;;;;;;;15.07;13.57;;;24.80;99.90;;;;;;4997246;28;20921;-51
2021/06/17 06:43:16;;;;;;;17.47;14.30;;;24.90;99.90;;;;;;4997505;28;20837;-48
2021/06/17 06:45:42;;;;;;;15.33;13.70;;;24.90;99.90;;;;;;4997945;28;20560;-49
2021/06/17 06:48:10;;;;;;;18.83;12.97;;;25.00;99.90;;;;;;4988792;28;20442;-50
2021/06/17 06:50:37;;;;;;;14.87;13.47;;;25.10;99.90;;;;;;4988296;28;20815;-46
2021/06/17 06:53:04;;;;;;;15.83;12.87;;;25.20;99.90;;;;;;4990779;28;20462;-49
2021/06/17 06:55:31;;;;;;;13.60;12.20;;;25.30;99.90;;;;;;4983893;28;20455;-48
2021/06/17 06:57:58;;;;;;;13.87;12.47;;;25.50;99.90;;;;;;4990749;28;20445;-48
2021/06/17 07:00:26;;;;;;;15.30;12.80;;;25.70;99.90;;;;;;4983353;28;20478;-49
2021/06/17 07:02:53;;;;;;;14.80;13.30;;;25.90;99.90;;;;;;4984702;28;20455;-51
2021/06/17 07:05:19;;;;;;;13.87;12.67;;;26.00;99.90;;;;;;4995371;28;20521;-48
2021/06/17 07:07:46;;;;;;;15.60;12.20;;;26.10;99.90;;;;;;4987820;28;20501;-48
2021/06/17 07:10:14;;;;;;;16.73;12.67;;;26.30;99.90;;;;;;4991378;28;20924;-49
2021/06/17 07:12:40;;;;;;;14.90;13.47;;;26.50;99.90;;;;;;4984768;28;20439;-45
2021/06/17 07:15:08;;;;;;;14.87;13.27;;;26.60;99.90;;;;;;4983410;28;20442;-47
2021/06/17 07:17:36;;;;;;;16.40;14.57;;;27.00;99.90;;;;;;4991265;28;20508;-45
2021/06/17 07:20:04;;;;;;;14.27;12.90;;;27.90;99.90;;;;;;4987574;28;20508;-48
2021/06/17 07:22:31;;;;;;;11.67;10.67;;;29.40;99.90;;;;;;4991865;28;20453;-51
2021/06/17 07:24:58;;;;;;;12.60;11.40;;;31.20;97.40;;;;;;4983983;28;20858;-50
2021/06/17 07:27:25;;;;;;;12.53;11.43;;;32.80;91.90;;;;;;4983918;28;20928;-49
2021/06/17 07:29:52;;;;;;;13.73;11.37;;;34.20;82.20;;;;;;4991625;28;20485;-47
2021/06/17 07:32:20;;;;;;;13.23;12.17;;;35.20;74.50;;;;;;4983732;28;20458;-50
2021/06/17 07:34:48;;;;;;;13.17;11.77;;;36.50;68.60;;;;;;4986392;28;20949;-47
2021/06/17 07:37:15;;;;;;;15.67;13.07;;;37.70;60.50;;;;;;4979576;28;20760;-48
2021/06/17 07:39:42;;;;;;;11.80;10.90;;;38.60;55.00;;;;;;4984338;28;21108;-49
2021/06/17 07:42:10;;;;;;;11.03;10.03;;;39.20;52.80;;;;;;4981254;28;20462;-48
2021/06/17 07:44:38;;;;;;;12.37;9.70;;;39.50;49.50;;;;;;4986552;28;20494;-44
2021/06/17 07:47:05;;;;;;;11.20;10.10;;;39.40;49.10;;;;;;4987485;28;20872;-48
2021/06/17 07:49:31;;;;;;;11.43;10.37;;;39.80;48.20;;;;;;4990629;28;20825;-44
2021/06/17 07:51:59;;;;;;;12.57;11.30;;;40.30;47.30;;;;;;4991064;28;20459;-45
2021/06/17 07:54:26;;;;;;;14.13;10.17;;;40.70;44.80;;;;;;4987475;28;20534;-47
2021/06/17 07:56:53;;;;;;;10.00;9.20;;;40.80;44.60;;;;;;4983830;28;20439;-47
2021/06/17 07:59:22;;;;;;;11.83;9.73;;;41.10;43.90;;;;;;4987706;28;20509;-48
2021/06/17 08:01:50;;;;;;;9.47;8.70;;;41.30;42.80;;;;;;4985580;28;21278;-49
2021/06/17 08:04:17;;;;;;;10.23;9.43;;;40.50;42.60;;;;;;4987851;28;20513;-46
2021/06/17 08:06:44;;;;;;;11.33;10.20;;;40.30;43.40;;;;;;4987375;28;20510;-47
2021/06/17 08:09:17;;;;;;;12.50;11.43;;;40.60;42.70;;;;;;4985055;28;20536;-45
2021/06/17 08:11:44;;;;;;;10.07;9.17;;;41.00;42.10;;;;;;4983051;28;20842;-47
2021/06/17 08:14:11;;;;;;;11.90;10.87;;;41.10;41.60;;;;;;4988984;28;20445;-48
2021/06/17 08:16:38;;;;;;;9.87;9.03;;;41.30;41.40;;;;;;4989045;28;20462;-47
2021/06/17 08:19:05;;;;;;;10.23;9.30;;;41.30;40.80;;;;;;4992236;28;20546;-48
2021/06/17 08:21:31;;;;;;;11.23;10.23;;;41.40;41.20;;;;;;4983241;28;20454;-52
2021/06/17 08:23:58;;;;;;;10.20;9.40;;;41.30;41.40;;;;;;4989069;28;20450;-52
2021/06/17 08:26:26;;;;;;;8.70;8.10;;;41.40;40.50;;;;;;4987444;28;20481;-47
2021/06/17 08:28:53;;;;;;;8.97;8.17;;;41.50;39.80;;;;;;4990639;28;20518;-48
2021/06/17 08:31:20;;;;;;;9.10;8.30;;;41.60;39.70;;;;;;4989136;28;20496;-45
2021/06/17 08:33:47;;;;;;;9.10;8.30;;;41.90;39.50;;;;;;4989759;28;20447;-47
2021/06/17 08:36:15;;;;;;;9.73;8.83;;;41.90;39.10;;;;;;4984124;28;20446;-46
2021/06/17 08:38:42;;;;;;;9.80;9.00;;;42.00;39.50;;;;;;4987169;28;20451;-47
2021/06/17 08:41:09;;;;;;;9.50;8.70;;;42.30;38.60;;;;;;4985307;28;20454;-44
2021/06/17 08:43:37;;;;;;;8.97;8.33;;;42.40;38.30;;;;;;4984768;28;20434;-46
2021/06/17 08:46:04;;;;;;;11.60;9.47;;;42.50;37.90;;;;;;4987451;28;20486;-51
2021/06/17 08:48:31;;;;;;;9.90;9.10;;;41.90;38.40;;;;;;4996156;28;20578;-52
2021/06/17 08:50:57;;;;;;;9.63;8.83;;;41.90;39.00;;;;;;4991167;28;20446;-53
2021/06/17 08:53:24;;;;;;;9.47;8.77;;;42.20;38.60;;;;;;4986406;28;20454;-48
2021/06/17 08:55:52;;;;;;;10.23;9.30;;;42.00;38.60;;;;;;4986666;28;20447;-50
2021/06/17 08:58:18;;;;;;;11.10;8.90;;;42.20;38.20;;;;;;4982217;28;20516;-53
2021/06/17 09:00:48;;;;;;;11.17;9.13;;;42.40;37.80;;;;;;4989425;28;20489;-45
2021/06/17 09:03:17;;;;;;;9.60;8.80;;;42.40;37.80;;;;;;4986028;28;20477;-48
2021/06/17 09:05:46;;;;;;;9.30;8.50;;;42.50;37.60;;;;;;4981762;28;20534;-50
2021/06/17 09:08:15;;;;;;;10.27;9.37;;;42.40;37.20;;;;;;4984881;28;20828;-50
2021/06/17 09:10:43;;;;;;;10.23;9.23;;;42.50;37.20;;;;;;4983615;28;20458;-51
2021/06/17 09:13:12;;;;;;;10.20;9.20;;;42.50;37.20;;;;;;4990006;28;20554;-47
2021/06/17 09:15:41;;;;;;;9.80;8.80;;;42.50;36.70;;;;;;4980943;28;20984;-52
2021/06/17 09:18:20;;;;;;;9.33;8.67;;;42.20;37.40;;;;;;4985979;28;20456;-46
2021/06/17 09:20:50;;;;;;;9.40;8.50;;;42.20;37.10;;;;;;4976860;28;20450;-49
2021/06/17 09:23:22;;;;;;;9.33;8.40;;;42.10;37.00;;;;;;4988588;28;20468;-49
2021/06/17 09:25:50;;;;;;;9.70;8.47;;;42.00;37.10;;;;;;4978162;28;20538;-50
2021/06/17 09:28:16;;;;;;;8.57;7.60;;;42.50;36.80;;;;;;4994004;28;20459;-46
2021/06/17 09:30:43;;;;;;;8.97;8.23;;;43.20;35.90;;;;;;4991942;28;20496;-49
2021/06/17 09:33:13;;;;;;;8.90;8.10;;;43.50;35.40;;;;;;4987052;28;20478;-49
2021/06/17 09:35:55;;;;;;;8.83;8.03;;;43.50;35.40;;;;;;4987938;28;20431;-46
2021/06/17 09:38:22;;;;;;;11.00;7.57;;;43.80;34.70;;;;;;4996458;28;20460;-47
2021/06/17 09:40:51;;;;;;;8.83;8.00;;;43.80;34.30;;;;;;4982748;28;20528;-50
2021/06/17 09:43:21;;;;;;;9.47;8.67;;;43.40;34.50;;;;;;4985280;28;20469;-52
2021/06/17 09:46:01;;;;;;;8.20;7.40;;;43.00;35.10;;;;;;4987726;28;20470;-49
2021/06/17 09:48:49;;;;;;;8.00;7.20;;;43.30;35.40;;;;;;4984607;28;20435;-50
2021/06/17 09:51:40;;;;;;;7.87;7.27;;;43.20;34.50;;;;;;4986232;28;20469;-50
2021/06/17 09:54:14;;;;;;;9.20;7.20;;;42.80;34.60;;;;;;4983137;28;20461;-45
2021/06/17 09:56:41;;;;;;;9.30;6.87;;;43.00;35.30;;;;;;4989875;28;20423;-47
2021/06/17 09:59:10;;;;;;;7.53;6.90;;;42.80;33.60;;;;;;4988872;28;20454;-48
2021/06/17 10:01:41;;;;;;;6.40;5.80;;;42.70;34.10;;;;;;4986846;28;20462;-50
2021/06/17 10:04:11;;;;;;;7.27;6.77;;;42.70;34.00;;;;;;4985094;28;20533;-47
2021/06/17 10:06:41;;;;;;;7.87;6.50;;;42.40;33.60;;;;;;4988450;28;21162;-51
2021/06/17 10:09:10;;;;;;;7.70;6.90;;;42.30;34.10;;;;;;4988880;28;20442;-49
2021/06/17 10:11:38;;;;;;;8.90;7.30;;;42.00;34.40;;;;;;4995069;28;20446;-47
2021/06/17 10:14:05;;;;;;;7.30;6.60;;;41.70;34.70;;;;;;4997726;28;20531;-50
2021/06/17 10:16:33;;;;;;;7.77;6.60;;;41.50;35.10;;;;;;4997776;28;20516;-50
2021/06/17 10:19:00;;;;;;;8.73;7.93;;;41.20;35.60;;;;;;4997537;28;20452;-50
2021/06/17 10:21:29;;;;;;;8.80;8.10;;;41.30;36.20;;;;;;4997227;28;20933;-50
2021/06/17 10:23:56;;;;;;;8.40;7.30;;;41.10;35.40;;;;;;4996728;28;20469;-50
2021/06/17 10:26:26;;;;;;;7.97;7.17;;;41.00;35.70;;;;;;4997129;28;20473;-52
2021/06/17 10:28:55;;;;;;;8.63;7.80;;;40.70;36.20;;;;;;4996956;28;20457;-52
2021/06/17 10:31:47;;;;;;;7.20;6.70;;;40.70;36.60;;;;;;4989121;28;20538;-52
2021/06/17 10:34:42;;;;;;;8.43;7.73;;;40.60;36.00;;;;;;4976979;28;20765;-49
2021/06/17 10:37:16;;;;;;;7.43;6.73;;;40.20;36.60;;;;;;4967813;28;20549;-48
2021/06/17 10:39:44;;;;;;;8.07;7.27;;;39.90;36.60;;;;;;4977153;28;20462;-50
2021/06/17 10:42:45;;;;;;;8.50;6.63;;;39.60;37.10;;;;;;4977218;28;20479;-50
2021/06/17 10:45:13;;;;;;;8.97;8.17;;;39.20;37.00;;;;;;4898726;29;20450;-51
2021/06/17 10:48:01;;;;;;;7.77;7.17;;;38.70;37.60;;;;;;4898456;29;20941;-50
2021/06/17 10:50:33;;;;;;;8.77;7.60;;;38.60;37.50;;;;;;4941726;28;20795;-48
2021/06/17 10:53:32;;;;;;;8.50;7.70;;;38.60;38.10;;;;;;4976671;28;20846;-48
2021/06/17 10:56:02;;;;;;;6.53;6.07;;;38.50;38.10;;;;;;4976842;28;20447;-50
2021/06/17 10:59:02;;;;;;;7.13;5.70;;;38.20;38.20;;;;;;4976659;28;21102;-47
2021/06/17 11:01:33;;;;;;;8.00;7.20;;;37.80;38.40;;;;;;4980629;28;20475;-47
2021/06/17 11:04:08;;;;;;;8.47;6.97;;;37.80;39.20;;;;;;4980702;28;20453;-48
2021/06/17 11:07:16;;;;;;;7.93;7.23;;;37.30;39.20;;;;;;4989600;28;20785;-47
2021/06/17 11:09:47;;;;;;;8.37;7.57;;;37.30;39.90;;;;;;4980572;28;20933;-49
2021/06/17 11:12:43;;;;;;;7.00;6.50;;;37.00;39.80;;;;;;4981284;28;20478;-50
2021/06/17 11:15:11;;;;;;;7.40;6.70;;;36.80;40.00;;;;;;4976163;28;20469;-44
2021/06/17 11:17:41;;;;;;;9.03;8.23;;;36.80;40.00;;;;;;4984943;28;20461;-47
2021/06/17 11:20:12;;;;;;;8.57;7.77;;;36.90;41.30;;;;;;4981765;28;20521;-42
2021/06/17 11:22:40;;;;;;;7.13;6.53;;;36.90;40.60;;;;;;4976865;28;20541;-46
2021/06/17 11:25:21;;;;;;;8.77;6.67;;;36.80;39.60;;;;;;4989287;28;20446;-49
2021/06/17 11:28:00;;;;;;;6.93;6.40;;;36.50;39.70;;;;;;4993220;28;20458;-49
2021/06/17 11:30:57;;;;;;;7.20;6.60;;;36.30;40.40;;;;;;4977858;28;20493;-49
2021/06/17 11:33:47;;;;;;;10.47;7.27;;;36.20;40.20;;;;;;4976768;28;20545;-45
2021/06/17 11:36:16;;;;;;;8.00;7.30;;;36.30;40.40;;;;;;4983842;28;20462;-50
2021/06/17 11:38:43;;;;;;;7.43;6.83;;;36.40;40.70;;;;;;4984995;28;20482;-51
2021/06/17 11:41:14;;;;;;;7.90;7.20;;;36.10;40.70;;;;;;4983355;28;20439;-47
2021/06/17 11:43:42;;;;;;;7.57;6.90;;;35.90;41.00;;;;;;4977258;28;20451;-44
2021/06/17 11:46:27;;;;;;;7.30;6.70;;;35.90;41.30;;;;;;4990641;28;20493;-49
2021/06/17 11:48:57;;;;;;;8.20;7.40;;;35.70;41.20;;;;;;4990102;28;20438;-45
2021/06/17 11:51:25;;;;;;;10.20;6.63;;;35.50;41.70;;;;;;4990927;28;20453;-42
2021/06/17 11:53:54;;;;;;;7.70;7.10;;;35.40;41.80;;;;;;4989266;28;20532;-43
2021/06/17 11:56:28;;;;;;;14.77;7.90;;;35.40;41.80;;;;;;4980194;28;20446;-45
2021/06/17 11:58:55;;;;;;;8.20;7.50;;;35.20;41.30;;;;;;4989031;28;20513;-46
2021/06/17 12:01:21;;;;;;;9.83;7.00;;;35.20;41.30;;;;;;4987726;28;20514;-46
2021/06/17 12:04:01;;;;;;;8.40;7.00;;;35.20;42.30;;;;;;4974949;28;20925;-46
2021/06/17 12:06:28;;;;;;;7.47;6.77;;;35.20;42.50;;;;;;4980012;28;20534;-46
2021/06/17 12:09:07;;;;;;;7.43;6.77;;;35.20;42.50;;;;;;4983726;28;20517;-43
2021/06/17 12:11:36;;;;;;;9.17;7.30;;;35.10;42.20;;;;;;4986524;28;20465;-47
2021/06/17 12:14:04;;;;;;;7.67;6.80;;;35.00;43.10;;;;;;4983889;28;20454;-48
2021/06/17 12:16:31;;;;;;;8.50;7.70;;;35.00;42.60;;;;;;4975716;28;20474;-48
2021/06/17 12:18:58;;;;;;;8.30;7.50;;;34.90;42.80;;;;;;4979274;28;20462;-45
2021/06/17 12:21:28;;;;;;;8.60;7.70;;;35.00;43.00;;;;;;4977728;28;20716;-48
2021/06/17 12:23:56;;;;;;;8.57;6.73;;;35.10;42.80;;;;;;4991698;28;20879;-47
2021/06/17 12:26:30;;;;;;;9.87;7.80;;;35.10;42.20;;;;;;4979400;28;20483;-50
2021/06/17 12:29:01;;;;;;;7.27;6.50;;;35.00;42.30;;;;;;4981875;28;20446;-46
2021/06/17 12:31:32;;;;;;;8.43;7.10;;;35.10;42.00;;;;;;4979776;28;20528;-47
2021/06/17 12:34:12;;;;;;;6.97;6.33;;;35.20;41.60;;;;;;4985993;28;20553;-45
2021/06/17 12:36:40;;;;;;;6.20;5.60;;;35.30;41.00;;;;;;4986037;28;20528;-45
2021/06/17 12:39:14;;;;;;;8.27;7.40;;;35.30;41.40;;;;;;4979768;28;20439;-43
2021/06/17 12:41:44;;;;;;;8.40;6.20;;;35.10;41.80;;;;;;4979682;28;20446;-44
2021/06/17 12:44:29;;;;;;;7.10;6.37;;;35.00;41.80;;;;;;4981561;28;20442;-50
2021/06/17 12:46:58;;;;;;;6.83;6.10;;;35.00;41.70;;;;;;4985985;28;20481;-47
2021/06/17 12:52:11;;;;;;;9.40;7.90;;;34.80;41.30;;;;;;4947159;28;20917;-48
2021/06/17 12:54:39;;;;;;;7.20;6.23;;;34.80;41.40;;;;;;4984844;28;20447;-46
2021/06/17 12:57:12;;;;;;;7.30;6.60;;;34.70;41.50;;;;;;4981629;28;20442;-44